Portada
METAR-TAF:

METAR-TAF

Aeroports :

Dubai World Central International Airport

Dubai, Emirats Àrabs Units

latitud: 24-53-49N, longitud: 55-09-40E, altitud: 35 m

Observació

L'informe es va fer fa 43 minuts, a les 14:00 UTC
Vent 8 kt del Nord
Temperatura 26°C
Humitat 48%
Pressió 1017 hPa
Visibilitat 10 km o més
Escasses núvols a una alçada de 4000 ft

METAR: OMDW 261400Z 36008KT 9999 FEW040 26/14 Q1017 NOSIG

Hora: 18:43 (14:43 UTC)

Pronòstic

L'informe es va fer fa 3 hores i 40 minuts, a les 11:03 UTC
Pronòstic vàlid del 26 a les 12 UTC al 27 a les 18 UTC
Vent 8 kt del Est/Sud-Est
Visibilitat 10 km o més
Escasses núvols a una alçada de 4000 ft
Probabilitat 40% :
Temporalment
l' 26 a les 12 UTC al 26 a les 16 UTC
Vent 12 kt del Nord/Nord-Oest
Probabilitat 30%
l' 27 a les 10 UTC al 27 a les 15 UTC
Vent 10 kt del Nord

TAF: OMDW 261103Z 2612/2718 11008KT 9999 FEW040 PROB40 TEMPO 2612/2616 34012KT PROB30 2710/2715 35010KT

Observacions i pronòstics meteorològics de més de 4000 aeroports (METAR i TAF).

Les estacions disponibles són els punts grocs i vermells al mapa.

Posi el ratolí al punt desitjat per veure el nom de l'estació.

Feu clic per veure les observacions i els pronòstics meteorològics.

Per canviar el mapa: feu clic els botons verds amb una creu de color negre per apropar; al botó verd amb un guió per allunyar la imatge; o en les fletxes verdes per a mapes adjacents.


METAR-TAF: